Time;durP1;ratioP1;P1;durP2;ratioP2;P2;SDS_P1;SDS_P2;PMS_P1;PMS_P2;Temp;Humidity;BMP_temperature;BMP_pressure;BME280_temperature;BME280_humidity;BME280_pressure;Samples;Min_cycle;Max_cycle;Signal;HPM_P1;HPM_P2
2021/04/04 00:00:42;;;;;;;6.67;3.47;;;14.80;35.20;;;;;;5026874;28;20194;-40
2021/04/04 00:03:08;;;;;;;5.90;3.83;;;14.90;34.60;;;;;;5022813;28;20201;-40
2021/04/04 00:05:34;;;;;;;4.20;3.70;;;15.00;34.70;;;;;;5024457;28;20194;-40
2021/04/04 00:07:59;;;;;;;6.07;4.23;;;15.00;34.10;;;;;;5027175;28;20858;-40
2021/04/04 00:10:25;;;;;;;6.30;3.80;;;15.00;33.10;;;;;;5023207;28;20200;-40
2021/04/04 00:12:51;;;;;;;7.70;4.30;;;15.00;33.40;;;;;;5027489;28;20201;-40
2021/04/04 00:15:17;;;;;;;5.60;4.50;;;15.00;34.10;;;;;;5026678;28;20197;-40
2021/04/04 00:17:43;;;;;;;7.60;4.03;;;15.00;34.30;;;;;;5019313;28;20652;-40
2021/04/04 00:20:11;;;;;;;6.33;4.20;;;14.90;34.40;;;;;;5019349;28;20447;-39
2021/04/04 00:22:37;;;;;;;6.63;4.80;;;14.90;34.60;;;;;;5027469;28;21714;-39
2021/04/04 00:25:06;;;;;;;7.13;4.10;;;14.90;34.30;;;;;;5020824;28;20544;-40
2021/04/04 00:27:32;;;;;;;9.10;4.20;;;14.90;33.70;;;;;;5023067;28;20216;-40
2021/04/04 00:29:57;;;;;;;8.43;4.50;;;14.90;33.40;;;;;;5027941;28;20455;-40
2021/04/04 00:32:23;;;;;;;3.83;3.43;;;14.90;33.40;;;;;;5025486;28;20656;-40
2021/04/04 00:34:48;;;;;;;5.03;3.93;;;14.80;34.20;;;;;;5028595;28;20198;-40
2021/04/04 00:37:14;;;;;;;5.20;3.83;;;14.80;34.70;;;;;;5027881;28;20312;-39
2021/04/04 00:39:39;;;;;;;5.07;4.00;;;14.70;34.80;;;;;;5029612;28;20605;-40
2021/04/04 00:42:05;;;;;;;5.37;4.87;;;14.60;34.10;;;;;;5026605;28;20193;-40
2021/04/04 00:44:31;;;;;;;7.00;4.17;;;14.50;35.20;;;;;;5028861;28;20194;-40
2021/04/04 00:46:56;;;;;;;7.20;5.20;;;14.40;35.80;;;;;;5027321;28;20681;-40
2021/04/04 00:49:22;;;;;;;8.53;4.80;;;14.30;36.30;;;;;;5026879;28;20303;-39
2021/04/04 00:51:48;;;;;;;5.83;4.70;;;14.30;35.30;;;;;;5026832;28;20198;-40
2021/04/04 00:54:14;;;;;;;5.63;4.47;;;14.20;35.80;;;;;;5029110;28;20196;-40
2021/04/04 00:56:40;;;;;;;6.53;4.30;;;14.20;35.00;;;;;;5027644;28;20205;-39
2021/04/04 00:59:06;;;;;;;7.33;4.13;;;14.10;35.10;;;;;;5029945;28;20523;-40
2021/04/04 01:01:33;;;;;;;5.27;3.57;;;14.00;35.60;;;;;;5025951;28;20440;-40
2021/04/04 01:03:59;;;;;;;5.40;3.60;;;14.00;36.60;;;;;;5029167;28;20823;-39
2021/04/04 01:06:25;;;;;;;5.50;5.00;;;13.90;37.30;;;;;;5027024;28;20440;-39
2021/04/04 01:08:50;;;;;;;6.30;4.07;;;13.90;36.90;;;;;;5027763;28;20957;-40
2021/04/04 01:11:23;;;;;;;6.07;4.30;;;14.00;36.30;;;;;;5024012;28;21816;-40
2021/04/04 01:14:10;;;;;;;6.33;4.30;;;14.00;35.90;;;;;;5019243;28;20201;-40
2021/04/04 01:16:41;;;;;;;6.60;4.33;;;14.00;36.00;;;;;;5017333;28;20859;-40
2021/04/04 01:19:32;;;;;;;6.80;4.47;;;13.90;35.60;;;;;;5028559;28;20472;-39
2021/04/04 01:22:14;;;;;;;3.70;3.37;;;13.80;36.10;;;;;;5025562;28;20448;-39
2021/04/04 01:25:02;;;;;;;4.90;4.23;;;13.80;36.50;;;;;;5029192;28;20466;-40
2021/04/04 01:27:46;;;;;;;4.23;3.73;;;13.70;36.30;;;;;;5026282;28;20530;-39
2021/04/04 01:30:14;;;;;;;7.60;4.27;;;13.60;36.60;;;;;;5029418;28;20440;-39
2021/04/04 01:32:42;;;;;;;4.33;3.90;;;13.50;36.30;;;;;;5025216;28;20450;-40
2021/04/04 01:35:10;;;;;;;7.17;4.00;;;13.50;36.30;;;;;;5021177;28;20973;-40
2021/04/04 01:37:37;;;;;;;4.00;3.60;;;13.50;36.50;;;;;;5022007;28;20467;-40
2021/04/04 01:40:06;;;;;;;4.93;3.20;;;13.50;36.90;;;;;;5027256;28;20476;-40
2021/04/04 01:42:35;;;;;;;6.53;4.37;;;13.50;36.40;;;;;;5029117;28;20801;-40
2021/04/04 01:45:02;;;;;;;5.97;4.47;;;13.40;37.00;;;;;;5025149;28;20452;-40
2021/04/04 01:47:28;;;;;;;5.60;3.80;;;13.40;37.60;;;;;;5026755;28;20444;-39
2021/04/04 01:49:55;;;;;;;5.47;3.80;;;13.50;37.70;;;;;;5028283;28;20451;-39
2021/04/04 01:52:22;;;;;;;4.33;3.53;;;13.70;37.60;;;;;;5026754;28;20817;-40
2021/04/04 01:54:48;;;;;;;6.00;3.70;;;13.80;36.90;;;;;;5026436;28;20986;-40
2021/04/04 01:57:16;;;;;;;4.60;3.53;;;13.90;36.30;;;;;;5027022;28;20447;-40
2021/04/04 01:59:44;;;;;;;5.30;4.00;;;14.00;36.10;;;;;;5025396;28;22655;-40
2021/04/04 02:02:10;;;;;;;5.37;3.47;;;14.00;36.20;;;;;;5023628;28;20444;-41
2021/04/04 02:04:37;;;;;;;5.20;4.00;;;14.10;36.00;;;;;;5022805;28;20440;-40
2021/04/04 02:07:06;;;;;;;8.50;4.30;;;14.10;35.70;;;;;;5017675;28;20506;-40
2021/04/04 02:09:32;;;;;;;5.73;4.10;;;14.10;35.10;;;;;;5018706;28;20526;-42
2021/04/04 02:11:59;;;;;;;5.80;4.53;;;14.10;35.60;;;;;;5019920;28;20448;-40
2021/04/04 02:14:25;;;;;;;4.97;3.83;;;14.10;35.70;;;;;;5025019;28;20546;-40
2021/04/04 02:16:55;;;;;;;5.13;3.80;;;14.00;35.60;;;;;;5024167;28;20438;-40
2021/04/04 02:19:24;;;;;;;5.03;3.73;;;14.00;35.60;;;;;;5027817;28;20439;-40
2021/04/04 02:21:53;;;;;;;4.70;3.67;;;13.90;35.60;;;;;;5026017;28;20475;-40
2021/04/04 02:24:22;;;;;;;6.40;4.17;;;13.90;36.50;;;;;;5030097;28;20519;-39
2021/04/04 02:26:52;;;;;;;4.50;3.57;;;13.80;37.00;;;;;;5022439;28;20444;-40
2021/04/04 02:29:19;;;;;;;4.97;3.87;;;13.80;36.40;;;;;;5026960;28;21017;-39
2021/04/04 02:32:00;;;;;;;5.17;4.13;;;13.80;36.40;;;;;;5027195;28;20443;-40
2021/04/04 02:34:36;;;;;;;6.43;4.03;;;13.80;35.90;;;;;;5023454;28;20467;-40
2021/04/04 02:37:09;;;;;;;4.30;3.60;;;13.70;35.20;;;;;;5020053;28;20838;-40
2021/04/04 02:39:41;;;;;;;7.13;4.27;;;13.60;35.80;;;;;;5026623;28;20448;-39
2021/04/04 02:42:08;;;;;;;5.50;4.47;;;13.60;35.90;;;;;;5023105;28;20540;-39
2021/04/04 02:44:36;;;;;;;4.93;3.80;;;13.60;36.10;;;;;;5019339;28;20937;-39
2021/04/04 02:47:10;;;;;;;6.70;3.93;;;13.70;36.70;;;;;;5020414;28;20503;-40
2021/04/04 02:49:37;;;;;;;5.60;3.93;;;13.80;36.60;;;;;;5027310;28;20491;-39
2021/04/04 02:52:07;;;;;;;5.40;3.93;;;13.80;36.40;;;;;;5019261;28;20448;-39
2021/04/04 02:54:36;;;;;;;4.63;3.73;;;13.80;36.70;;;;;;5019496;28;20452;-39
2021/04/04 02:57:02;;;;;;;4.57;3.53;;;13.80;36.80;;;;;;5024846;28;20432;-40
2021/04/04 02:59:28;;;;;;;5.20;3.60;;;13.80;36.60;;;;;;5019249;28;20451;-40
2021/04/04 03:01:56;;;;;;;4.07;3.47;;;13.80;35.20;;;;;;5026372;28;20502;-40
2021/04/04 03:04:25;;;;;;;6.90;2.90;;;13.80;35.80;;;;;;5024665;28;20193;-41
2021/04/04 03:06:53;;;;;;;4.27;3.73;;;13.80;35.80;;;;;;5017322;28;20556;-40
2021/04/04 03:09:20;;;;;;;6.53;4.10;;;13.80;36.60;;;;;;5023564;28;20495;-40
2021/04/04 03:11:50;;;;;;;3.93;3.53;;;13.80;36.60;;;;;;5025797;28;20851;-40
2021/04/04 03:14:17;;;;;;;5.87;3.47;;;13.80;36.20;;;;;;5026656;28;20460;-40
2021/04/04 03:16:44;;;;;;;4.87;3.50;;;13.80;35.70;;;;;;5024544;28;20951;-40
2021/04/04 03:19:13;;;;;;;5.20;3.00;;;13.80;35.50;;;;;;5025119;28;20942;-40
2021/04/04 03:21:40;;;;;;;5.80;3.37;;;13.80;35.80;;;;;;5023031;28;20444;-40
2021/04/04 03:24:07;;;;;;;6.30;3.50;;;13.70;36.00;;;;;;5025093;28;20531;-40
2021/04/04 03:26:34;;;;;;;4.50;3.93;;;13.70;35.50;;;;;;5018001;28;20462;-40
2021/04/04 03:29:00;;;;;;;5.43;3.87;;;13.70;35.70;;;;;;5025026;28;20488;-40
2021/04/04 03:31:27;;;;;;;5.10;3.40;;;13.60;35.10;;;;;;5020845;28;20447;-40
2021/04/04 03:33:53;;;;;;;6.43;4.40;;;13.50;35.60;;;;;;5029430;28;20947;-40
2021/04/04 03:36:21;;;;;;;6.67;3.90;;;13.30;35.70;;;;;;5021955;28;20436;-40
2021/04/04 03:38:50;;;;;;;5.43;4.17;;;13.30;35.80;;;;;;5023676;28;20491;-40
2021/04/04 03:41:17;;;;;;;4.27;3.53;;;13.10;36.10;;;;;;5021387;28;20489;-40
2021/04/04 03:43:46;;;;;;;6.53;2.93;;;13.10;36.40;;;;;;5025959;28;20432;-40
2021/04/04 03:46:13;;;;;;;7.67;4.30;;;13.10;36.70;;;;;;5018118;28;20440;-40
2021/04/04 03:48:44;;;;;;;5.17;3.67;;;13.20;36.70;;;;;;5023512;28;20626;-40
2021/04/04 03:51:10;;;;;;;7.50;3.93;;;13.20;37.00;;;;;;5025084;28;20506;-40
2021/04/04 03:53:39;;;;;;;4.30;3.70;;;13.20;37.20;;;;;;5027420;28;20923;-40
2021/04/04 03:56:06;;;;;;;6.60;3.60;;;13.30;37.20;;;;;;5020534;28;20436;-40
2021/04/04 03:58:37;;;;;;;5.93;3.70;;;13.30;36.10;;;;;;5023673;28;20436;-40
2021/04/04 04:01:06;;;;;;;3.40;3.07;;;13.30;36.40;;;;;;5023502;28;20444;-40
2021/04/04 04:03:37;;;;;;;4.07;3.40;;;13.40;36.70;;;;;;5027017;28;20440;-40
2021/04/04 04:06:04;;;;;;;5.20;3.90;;;13.40;36.80;;;;;;5031251;28;20487;-40
2021/04/04 04:08:30;;;;;;;4.77;3.43;;;13.40;37.00;;;;;;5027193;28;20483;-40
2021/04/04 04:10:57;;;;;;;5.33;3.60;;;13.40;37.00;;;;;;5030858;28;20530;-40
2021/04/04 04:13:23;;;;;;;5.53;3.60;;;13.30;36.90;;;;;;5029537;28;20451;-40
2021/04/04 04:15:51;;;;;;;4.43;3.67;;;13.30;37.40;;;;;;5029854;28;20955;-40
2021/04/04 04:18:18;;;;;;;6.53;3.50;;;13.30;36.80;;;;;;5027119;28;20189;-40
2021/04/04 04:20:45;;;;;;;4.00;2.97;;;13.30;37.10;;;;;;5028287;28;20458;-40
2021/04/04 04:23:11;;;;;;;10.07;3.70;;;13.30;36.90;;;;;;5026106;28;20493;-40
2021/04/04 04:25:38;;;;;;;4.00;3.27;;;13.20;36.40;;;;;;5025210;28;20444;-41
2021/04/04 04:28:06;;;;;;;6.10;3.67;;;13.20;37.00;;;;;;5028728;28;20483;-40
2021/04/04 04:30:32;;;;;;;6.77;3.23;;;13.20;36.70;;;;;;5027759;28;20475;-40
2021/04/04 04:33:01;;;;;;;4.97;3.77;;;13.20;36.90;;;;;;5029709;28;20460;-40
2021/04/04 04:35:29;;;;;;;8.97;3.70;;;13.20;36.70;;;;;;5024579;28;21382;-40
2021/04/04 04:37:55;;;;;;;5.60;4.10;;;13.10;36.80;;;;;;5021562;28;20479;-40
2021/04/04 04:40:22;;;;;;;6.40;4.33;;;13.20;37.10;;;;;;5022777;28;20455;-40
2021/04/04 04:42:50;;;;;;;5.20;3.90;;;13.10;36.40;;;;;;5028998;28;20447;-40
2021/04/04 04:45:35;;;;;;;7.40;3.67;;;13.10;36.00;;;;;;5026460;28;20432;-40
2021/04/04 04:48:02;;;;;;;4.27;3.73;;;13.00;36.30;;;;;;5029986;28;20510;-40
2021/04/04 04:50:28;;;;;;;4.40;3.47;;;13.00;36.30;;;;;;5026485;28;20448;-40
2021/04/04 04:52:56;;;;;;;3.50;3.20;;;13.00;36.70;;;;;;5031952;28;20456;-40
2021/04/04 04:55:24;;;;;;;5.50;4.30;;;13.00;36.80;;;;;;5029831;28;20428;-40
2021/04/04 04:57:50;;;;;;;5.90;3.77;;;12.90;36.50;;;;;;5029316;28;20823;-40
2021/04/04 05:00:17;;;;;;;5.23;3.43;;;12.90;36.10;;;;;;5030459;28;20424;-40
2021/04/04 05:02:44;;;;;;;5.43;4.13;;;12.80;36.40;;;;;;5026224;28;20494;-39
2021/04/04 05:05:12;;;;;;;7.23;3.40;;;12.80;36.90;;;;;;5026124;28;20447;-40
2021/04/04 05:07:40;;;;;;;9.20;4.10;;;12.70;37.40;;;;;;5030721;28;20534;-40
2021/04/04 05:10:11;;;;;;;6.80;3.53;;;12.70;37.70;;;;;;5029448;28;20958;-40
2021/04/04 05:12:51;;;;;;;4.50;3.40;;;12.70;37.70;;;;;;5028824;28;20942;-40
2021/04/04 05:15:22;;;;;;;4.13;3.50;;;12.70;37.40;;;;;;5029310;28;20463;-41
2021/04/04 05:17:48;;;;;;;5.93;3.60;;;12.70;37.80;;;;;;5027177;28;20439;-40
2021/04/04 05:20:17;;;;;;;4.63;3.40;;;12.60;37.50;;;;;;5029096;28;20494;-40
2021/04/04 05:22:43;;;;;;;4.03;3.00;;;12.60;38.20;;;;;;5021839;28;20478;-40
2021/04/04 05:25:09;;;;;;;4.57;3.90;;;12.50;37.70;;;;;;5027478;28;20448;-40
2021/04/04 05:27:36;;;;;;;20.77;3.70;;;12.30;36.90;;;;;;5028759;28;20440;-40
2021/04/04 05:30:13;;;;;;;18.20;4.27;;;12.10;40.70;;;;;;5028428;28;20443;-40
2021/04/04 05:32:49;;;;;;;4.60;3.70;;;12.30;40.30;;;;;;5022875;28;20474;-41
2021/04/04 05:35:19;;;;;;;5.43;3.93;;;12.60;37.90;;;;;;5020117;28;20456;-41
2021/04/04 05:37:46;;;;;;;5.60;3.77;;;12.80;36.60;;;;;;5020898;28;20494;-40
2021/04/04 05:40:17;;;;;;;5.03;3.30;;;13.00;36.10;;;;;;5025672;28;20473;-40
2021/04/04 05:42:52;;;;;;;8.23;3.97;;;13.00;35.80;;;;;;5027200;28;20435;-40
2021/04/04 05:45:55;;;;;;;3.93;3.50;;;13.10;35.70;;;;;;5024076;28;20439;-40
2021/04/04 05:48:36;;;;;;;4.47;3.20;;;13.20;35.20;;;;;;5018666;28;20483;-41
2021/04/04 05:51:23;;;;;;;5.50;3.83;;;13.20;35.10;;;;;;5025295;28;20452;-40
2021/04/04 05:54:24;;;;;;;5.30;3.63;;;13.30;34.90;;;;;;5026559;28;20521;-41
2021/04/04 05:56:58;;;;;;;6.23;3.53;;;13.40;34.70;;;;;;5021431;28;20535;-40
2021/04/04 05:59:33;;;;;;;5.47;3.57;;;13.40;34.50;;;;;;5023209;28;20446;-41
2021/04/04 06:02:02;;;;;;;6.43;4.27;;;13.40;34.70;;;;;;5023621;28;20455;-40
2021/04/04 06:05:12;;;;;;;8.47;3.50;;;13.40;34.60;;;;;;5023111;28;20555;-40
2021/04/04 06:08:15;;;;;;;5.63;4.57;;;13.40;34.80;;;;;;5027572;28;20447;-41
2021/04/04 06:10:55;;;;;;;6.67;3.53;;;13.30;34.70;;;;;;5019828;28;20467;-40
2021/04/04 06:13:34;;;;;;;6.00;3.93;;;12.80;35.60;;;;;;5021163;28;20954;-40
2021/04/04 06:16:09;;;;;;;4.30;3.80;;;12.70;35.90;;;;;;5021744;28;20448;-40
2021/04/04 06:19:13;;;;;;;11.87;5.23;;;12.80;36.10;;;;;;5022837;28;20454;-40
2021/04/04 06:21:46;;;;;;;5.13;3.90;;;13.00;35.80;;;;;;5022723;28;20451;-41
2021/04/04 06:24:53;;;;;;;6.67;3.50;;;13.20;35.50;;;;;;5025864;28;20448;-40
2021/04/04 06:27:38;;;;;;;9.30;4.93;;;13.40;35.20;;;;;;5020991;28;20447;-40
2021/04/04 06:33:17;;;;;;;6.03;5.13;;;13.40;35.20;;;;;;5020514;28;20477;-39
2021/04/04 06:35:48;;;;;;;7.67;4.03;;;13.20;36.50;;;;;;5021386;28;20447;-39
2021/04/04 06:38:36;;;;;;;7.63;4.60;;;12.70;36.80;;;;;;5020174;28;20903;-39
2021/04/04 06:41:17;;;;;;;6.30;4.50;;;11.90;38.30;;;;;;5021672;28;20928;-39
2021/04/04 06:44:08;;;;;;;4.87;4.07;;;11.50;39.60;;;;;;5019889;28;20809;-39
2021/04/04 06:46:34;;;;;;;5.40;3.93;;;10.80;41.10;;;;;;5016122;28;21082;-39
2021/04/04 06:49:22;;;;;;;7.23;4.43;;;11.10;41.20;;;;;;5012963;28;20488;-39
2021/04/04 06:51:59;;;;;;;6.27;4.20;;;11.50;40.40;;;;;;5021753;28;20221;-39
2021/04/04 06:55:01;;;;;;;6.30;4.03;;;11.00;41.30;;;;;;5022325;28;20470;-39
2021/04/04 06:57:37;;;;;;;6.33;4.20;;;11.50;41.00;;;;;;5020776;28;20877;-39
2021/04/04 07:00:10;;;;;;;6.30;4.00;;;12.00;39.90;;;;;;5019916;28;20513;-40
2021/04/04 07:03:13;;;;;;;4.50;3.70;;;12.40;39.30;;;;;;5020823;28;20448;-39
2021/04/04 07:06:04;;;;;;;9.33;4.50;;;12.70;38.60;;;;;;5022497;28;20508;-39
2021/04/04 07:08:48;;;;;;;4.90;4.40;;;12.90;37.90;;;;;;5024686;28;20527;-40
2021/04/04 07:11:39;;;;;;;8.10;4.33;;;13.20;37.60;;;;;;5025488;28;20487;-39
2021/04/04 07:14:48;;;;;;;7.07;3.93;;;13.30;37.10;;;;;;5024795;28;20483;-40
2021/04/04 07:17:51;;;;;;;5.30;4.03;;;13.50;37.20;;;;;;5020909;28;20931;-40
2021/04/04 07:20:43;;;;;;;6.07;4.90;;;13.70;37.30;;;;;;5026019;28;20443;-40
2021/04/04 07:23:38;;;;;;;5.20;4.50;;;14.00;37.00;;;;;;5025994;28;20814;-40
2021/04/04 07:26:21;;;;;;;9.77;5.00;;;14.20;36.50;;;;;;5023350;28;20445;-40
2021/04/04 07:29:11;;;;;;;7.67;4.67;;;14.40;36.10;;;;;;5029283;28;20487;-40
2021/04/04 07:31:45;;;;;;;9.57;4.53;;;14.60;35.80;;;;;;5027214;28;20447;-40
2021/04/04 07:34:18;;;;;;;5.53;4.23;;;14.70;35.70;;;;;;5024604;28;20955;-40
2021/04/04 07:37:04;;;;;;;8.47;5.17;;;14.90;36.00;;;;;;5022953;28;20993;-40
2021/04/04 07:39:45;;;;;;;4.87;3.43;;;15.00;35.20;;;;;;5030528;28;20966;-40
2021/04/04 07:42:16;;;;;;;5.80;4.40;;;15.10;34.00;;;;;;5024762;28;20441;-40
2021/04/04 07:44:50;;;;;;;5.47;4.60;;;15.10;33.40;;;;;;5023417;28;20443;-40
2021/04/04 07:47:54;;;;;;;5.03;4.50;;;15.20;33.80;;;;;;5024168;28;20444;-40
2021/04/04 07:50:32;;;;;;;4.83;4.33;;;15.30;33.90;;;;;;5012691;28;20500;-41
2021/04/04 07:53:18;;;;;;;10.60;5.20;;;15.40;34.10;;;;;;5029654;28;20505;-41
2021/04/04 07:56:06;;;;;;;8.57;4.87;;;15.60;34.30;;;;;;5027967;28;20809;-40
2021/04/04 07:58:38;;;;;;;5.17;4.57;;;15.60;33.60;;;;;;5023579;28;20455;-40
2021/04/04 08:01:20;;;;;;;7.63;4.90;;;15.70;33.50;;;;;;5029390;28;20485;-41
2021/04/04 08:03:58;;;;;;;5.80;4.77;;;15.90;33.50;;;;;;5031813;28;20450;-41
2021/04/04 08:06:40;;;;;;;7.17;4.80;;;15.80;33.50;;;;;;5029883;28;20930;-40
2021/04/04 08:09:30;;;;;;;5.97;4.90;;;15.80;34.10;;;;;;5012699;28;20849;-41
2021/04/04 08:12:17;;;;;;;7.67;5.10;;;15.90;34.00;;;;;;5028226;28;20505;-41
2021/04/04 08:14:53;;;;;;;8.40;5.20;;;16.00;33.70;;;;;;5017578;28;20523;-40
2021/04/04 08:17:19;;;;;;;5.73;4.93;;;16.20;34.00;;;;;;5033729;28;20788;-40
2021/04/04 08:19:56;;;;;;;5.57;4.93;;;16.20;33.20;;;;;;5034043;28;20432;-41
2021/04/04 08:22:27;;;;;;;6.60;4.77;;;16.30;33.20;;;;;;5019067;28;20198;-41
2021/04/04 08:25:02;;;;;;;8.00;4.77;;;16.30;33.70;;;;;;5015197;28;20436;-41
2021/04/04 08:27:35;;;;;;;8.20;5.00;;;16.40;33.20;;;;;;5017233;28;20534;-41
2021/04/04 08:30:26;;;;;;;7.10;4.90;;;16.50;32.40;;;;;;5015932;28;20452;-41
2021/04/04 08:33:19;;;;;;;7.97;4.80;;;16.50;32.10;;;;;;5010755;28;20440;-41
2021/04/04 08:35:48;;;;;;;6.43;4.20;;;16.60;32.70;;;;;;5024638;28;20445;-40
2021/04/04 08:38:22;;;;;;;8.30;4.77;;;16.70;32.40;;;;;;5016768;28;20496;-40
2021/04/04 08:40:48;;;;;;;10.03;4.70;;;16.60;32.20;;;;;;5026315;28;20466;-40
2021/04/04 08:43:15;;;;;;;11.53;5.13;;;16.70;31.50;;;;;;5014000;28;20417;-41
2021/04/04 08:46:02;;;;;;;9.20;5.43;;;16.60;31.50;;;;;;5022050;28;20441;-41
2021/04/04 08:48:29;;;;;;;8.77;4.43;;;16.70;32.00;;;;;;5013877;28;20482;-41
2021/04/04 08:50:57;;;;;;;6.70;4.20;;;16.50;32.10;;;;;;5027538;28;20931;-41
2021/04/04 08:53:26;;;;;;;9.63;5.27;;;16.50;32.50;;;;;;5031871;28;20435;-40
2021/04/04 08:55:53;;;;;;;9.17;5.63;;;16.50;32.40;;;;;;5023288;28;20452;-41
2021/04/04 08:58:23;;;;;;;8.30;4.70;;;16.80;32.70;;;;;;5016515;28;20440;-41
2021/04/04 09:00:55;;;;;;;7.27;5.10;;;16.90;34.20;;;;;;5023359;28;20417;-41
2021/04/04 09:03:24;;;;;;;6.63;4.80;;;17.00;33.40;;;;;;5015139;28;20478;-41
2021/04/04 09:06:01;;;;;;;6.83;5.30;;;17.30;33.40;;;;;;5021828;28;20515;-41
2021/04/04 09:08:27;;;;;;;6.77;5.20;;;17.50;33.40;;;;;;5015932;28;20506;-41
2021/04/04 09:10:53;;;;;;;7.20;4.97;;;17.70;31.70;;;;;;5032536;28;20474;-41
2021/04/04 09:13:20;;;;;;;6.33;4.37;;;17.80;32.30;;;;;;5032970;28;20427;-42
2021/04/04 09:15:54;;;;;;;6.40;4.53;;;17.90;31.70;;;;;;5019955;28;20815;-41
2021/04/04 09:18:21;;;;;;;7.73;4.83;;;18.00;31.70;;;;;;5019895;28;20474;-41
2021/04/04 09:20:47;;;;;;;7.73;5.03;;;18.10;31.90;;;;;;5018794;28;20845;-41
2021/04/04 09:23:16;;;;;;;11.63;7.00;;;18.30;31.10;;;;;;5013184;28;20424;-40
2021/04/04 09:26:08;;;;;;;9.67;6.17;;;18.40;31.00;;;;;;5031047;28;20876;-41
2021/04/04 09:28:36;;;;;;;8.67;4.70;;;18.40;31.00;;;;;;5030552;28;20511;-41
2021/04/04 09:31:04;;;;;;;6.70;4.83;;;18.60;30.90;;;;;;5012770;28;20504;-40
2021/04/04 09:33:37;;;;;;;7.43;5.03;;;18.70;31.20;;;;;;5032337;28;20467;-41
2021/04/04 09:36:05;;;;;;;8.47;5.00;;;18.90;30.90;;;;;;5012139;28;20440;-41
2021/04/04 09:38:42;;;;;;;6.70;5.00;;;19.00;31.00;;;;;;5029077;28;20436;-41
2021/04/04 09:41:10;;;;;;;7.43;4.40;;;19.20;30.10;;;;;;5024011;28;20448;-40
2021/04/04 09:44:04;;;;;;;6.90;4.07;;;19.20;29.80;;;;;;5030574;28;20440;-41
2021/04/04 09:46:30;;;;;;;7.07;4.80;;;19.40;30.40;;;;;;5024244;28;20444;-42
2021/04/04 09:48:55;;;;;;;5.60;3.87;;;19.60;29.50;;;;;;5029300;28;20525;-41
2021/04/04 09:51:22;;;;;;;5.63;3.77;;;19.70;29.00;;;;;;5028662;28;20197;-41
2021/04/04 09:53:53;;;;;;;6.33;3.80;;;19.80;28.40;;;;;;5030691;28;20521;-41
2021/04/04 09:56:27;;;;;;;4.60;4.00;;;19.80;27.20;;;;;;5030025;28;20497;-41
2021/04/04 09:58:53;;;;;;;4.80;3.67;;;19.90;27.10;;;;;;5027282;28;20447;-41
2021/04/04 10:01:21;;;;;;;5.73;3.87;;;19.80;27.40;;;;;;5030429;28;20443;-40
2021/04/04 10:04:07;;;;;;;5.70;4.13;;;19.80;27.50;;;;;;5031120;28;20189;-41
2021/04/04 10:06:36;;;;;;;4.63;3.53;;;19.90;26.80;;;;;;5024685;28;20445;-41
2021/04/04 10:09:09;;;;;;;3.87;3.23;;;20.00;27.70;;;;;;5023120;28;20857;-41
2021/04/04 10:11:35;;;;;;;2.67;2.47;;;20.00;27.70;;;;;;5013802;28;20479;-42
2021/04/04 10:14:15;;;;;;;4.07;3.33;;;20.40;27.40;;;;;;5030582;28;20451;-41
2021/04/04 10:16:41;;;;;;;4.77;3.87;;;20.60;27.00;;;;;;5030744;28;20455;-41
2021/04/04 10:19:08;;;;;;;4.83;3.37;;;20.60;27.00;;;;;;5030711;28;20782;-41
2021/04/04 10:21:54;;;;;;;4.97;3.50;;;20.80;26.80;;;;;;5029042;28;20506;-41
2021/04/04 10:24:34;;;;;;;9.33;4.37;;;21.00;27.00;;;;;;5028940;28;20515;-41
2021/04/04 10:27:29;;;;;;;4.03;3.70;;;21.20;26.50;;;;;;5028369;28;20446;-41
2021/04/04 10:30:17;;;;;;;2.90;2.70;;;21.20;26.00;;;;;;5029609;28;20498;-41
2021/04/04 10:32:49;;;;;;;4.83;3.23;;;21.10;25.80;;;;;;5025190;28;20463;-41
2021/04/04 10:35:39;;;;;;;4.13;2.53;;;21.10;25.90;;;;;;5026471;28;20439;-41
2021/04/04 10:38:16;;;;;;;4.90;3.70;;;20.80;24.90;;;;;;5026246;28;20488;-43
2021/04/04 10:40:45;;;;;;;4.97;2.97;;;20.40;25.80;;;;;;5025055;28;21155;-41
2021/04/04 10:43:12;;;;;;;3.10;2.40;;;20.70;27.00;;;;;;5029971;28;20467;-41
2021/04/04 10:45:59;;;;;;;3.40;2.90;;;21.10;27.30;;;;;;5014276;28;20483;-41
2021/04/04 10:48:27;;;;;;;3.10;2.80;;;21.10;24.40;;;;;;5029701;28;20495;-42
2021/04/04 10:50:53;;;;;;;3.40;3.10;;;21.30;24.50;;;;;;5015677;28;20463;-41
2021/04/04 10:53:20;;;;;;;3.80;2.90;;;21.40;24.90;;;;;;5029520;28;20440;-41
2021/04/04 10:55:46;;;;;;;4.60;2.67;;;21.50;25.20;;;;;;5028345;28;20463;-41
2021/04/04 10:58:14;;;;;;;4.50;2.47;;;21.60;24.60;;;;;;5029213;28;20432;-41
2021/04/04 11:00:42;;;;;;;5.83;3.10;;;21.60;24.20;;;;;;5021346;28;20454;-41
2021/04/04 11:03:08;;;;;;;4.17;3.07;;;21.80;23.90;;;;;;5020994;28;20815;-42
2021/04/04 11:05:36;;;;;;;4.97;2.63;;;22.00;24.40;;;;;;5026972;28;21540;-41
2021/04/04 11:08:03;;;;;;;5.30;3.27;;;22.10;24.20;;;;;;5027335;28;20472;-42
2021/04/04 11:10:29;;;;;;;3.30;2.73;;;22.30;24.40;;;;;;5027233;28;20444;-41
2021/04/04 11:12:57;;;;;;;8.83;6.90;;;22.50;24.10;;;;;;5018513;28;20497;-41
2021/04/04 11:15:24;;;;;;;6.27;4.03;;;22.60;23.20;;;;;;5029061;28;20875;-41
2021/04/04 11:17:50;;;;;;;4.63;4.13;;;22.60;23.70;;;;;;5030536;28;20440;-41
2021/04/04 11:20:18;;;;;;;3.83;2.73;;;22.70;24.20;;;;;;5024529;28;20432;-42
2021/04/04 11:22:44;;;;;;;6.93;4.33;;;22.70;24.90;;;;;;5024211;28;20438;-41
2021/04/04 11:25:11;;;;;;;6.10;3.90;;;22.90;24.50;;;;;;5024015;28;20443;-42
2021/04/04 11:27:48;;;;;;;3.20;2.90;;;22.90;24.40;;;;;;5029775;28;21011;-42
2021/04/04 11:30:35;;;;;;;6.43;3.70;;;23.10;25.00;;;;;;5029163;28;20550;-43
2021/04/04 11:33:28;;;;;;;7.80;7.10;;;23.30;24.00;;;;;;5023641;28;20452;-41
2021/04/04 11:36:02;;;;;;;8.13;5.23;;;23.30;23.30;;;;;;5019379;28;20460;-41
2021/04/04 11:38:30;;;;;;;3.60;2.90;;;23.30;24.20;;;;;;5017129;28;20498;-42
2021/04/04 11:41:20;;;;;;;3.30;2.80;;;23.30;25.00;;;;;;5024143;28;20447;-42
2021/04/04 11:44:13;;;;;;;4.13;2.50;;;23.70;25.30;;;;;;5025994;28;20451;-41
2021/04/04 11:46:51;;;;;;;3.33;2.90;;;23.80;24.80;;;;;;5019981;28;20499;-41
2021/04/04 11:49:37;;;;;;;5.27;2.87;;;23.40;23.70;;;;;;5023446;28;20969;-43
2021/04/04 11:52:09;;;;;;;4.20;3.10;;;23.50;24.30;;;;;;5018639;28;20456;-42
2021/04/04 11:54:49;;;;;;;3.97;3.00;;;23.80;24.10;;;;;;5017720;28;20498;-41
2021/04/04 11:57:30;;;;;;;4.07;2.90;;;23.80;23.10;;;;;;5016910;28;20441;-41
2021/04/04 11:59:56;;;;;;;4.00;3.50;;;23.70;23.10;;;;;;5028295;28;20530;-41
2021/04/04 12:02:23;;;;;;;4.47;3.50;;;23.70;22.40;;;;;;5022502;28;20436;-42
2021/04/04 12:05:18;;;;;;;3.77;2.73;;;23.60;22.40;;;;;;5025686;28;20436;-44
2021/04/04 12:07:47;;;;;;;2.87;2.67;;;23.60;24.10;;;;;;5015386;28;20469;-43
2021/04/04 12:10:16;;;;;;;3.73;3.20;;;23.70;23.60;;;;;;5027758;28;20432;-42
2021/04/04 12:12:42;;;;;;;3.73;3.40;;;23.70;23.00;;;;;;5029615;28;20432;-42
2021/04/04 12:15:09;;;;;;;3.77;3.27;;;23.70;24.00;;;;;;5029633;28;20984;-42
2021/04/04 12:17:35;;;;;;;5.10;3.70;;;23.70;23.70;;;;;;5026052;28;20447;-42
2021/04/04 12:20:02;;;;;;;5.40;3.10;;;23.80;22.90;;;;;;5016080;28;20436;-42
2021/04/04 12:22:42;;;;;;;7.73;3.40;;;24.00;22.00;;;;;;5019680;28;20197;-42
2021/04/04 12:25:11;;;;;;;5.10;3.00;;;23.80;22.00;;;;;;5028665;28;20863;-42
2021/04/04 12:27:39;;;;;;;4.77;3.47;;;23.70;23.60;;;;;;5032300;28;20424;-42
2021/04/04 12:30:06;;;;;;;5.33;3.40;;;23.70;23.50;;;;;;5023550;28;20491;-42
2021/04/04 12:32:33;;;;;;;3.53;2.80;;;23.80;23.00;;;;;;5029164;28;20479;-42
2021/04/04 12:35:01;;;;;;;3.40;3.10;;;24.00;23.90;;;;;;5032216;28;20928;-42
2021/04/04 12:37:29;;;;;;;4.23;3.27;;;24.10;22.70;;;;;;5020006;28;20468;-42
2021/04/04 12:39:59;;;;;;;3.83;2.90;;;24.10;22.70;;;;;;5029925;28;20998;-42
2021/04/04 12:42:33;;;;;;;4.40;3.37;;;24.20;23.40;;;;;;5030177;28;20796;-42
2021/04/04 12:45:09;;;;;;;4.17;3.60;;;24.00;22.20;;;;;;5026965;28;20428;-43
2021/04/04 12:47:38;;;;;;;3.97;3.33;;;24.10;22.30;;;;;;5031830;28;22155;-43
2021/04/04 12:50:12;;;;;;;4.20;3.40;;;24.30;22.50;;;;;;5030949;28;20491;-42
2021/04/04 12:52:49;;;;;;;4.40;3.13;;;24.20;23.00;;;;;;5024262;28;20783;-42
2021/04/04 12:55:16;;;;;;;4.23;3.47;;;24.10;22.90;;;;;;5024535;28;20462;-42
2021/04/04 12:57:44;;;;;;;6.70;3.20;;;24.20;23.60;;;;;;5033312;28;20460;-42
2021/04/04 13:00:14;;;;;;;4.00;2.90;;;24.20;22.90;;;;;;5032575;28;20486;-43
2021/04/04 13:02:39;;;;;;;4.13;3.73;;;24.20;22.80;;;;;;5033575;28;20428;-44
2021/04/04 13:05:06;;;;;;;7.63;3.80;;;24.30;21.90;;;;;;5030675;28;21293;-42
2021/04/04 13:07:31;;;;;;;6.03;3.27;;;24.20;22.20;;;;;;5021546;28;20225;-42
2021/04/04 13:09:57;;;;;;;4.67;3.40;;;24.10;23.30;;;;;;5014129;28;20947;-42
2021/04/04 13:12:23;;;;;;;3.57;3.00;;;24.10;22.20;;;;;;5011389;28;20220;-42
2021/04/04 13:14:48;;;;;;;5.67;3.47;;;24.30;23.00;;;;;;5017012;28;20197;-42
2021/04/04 13:17:14;;;;;;;3.23;2.83;;;24.40;23.10;;;;;;5021511;28;20206;-42